Time;durP1;ratioP1;P1;durP2;ratioP2;P2;SDS_P1;SDS_P2;PMS_P1;PMS_P2;Temp;Humidity;BMP_temperature;BMP_pressure;BME280_temperature;BME280_humidity;BME280_pressure;Samples;Min_cycle;Max_cycle;Signal;HPM_P1;HPM_P2
2023/11/13 00:01:20;;;;;;;48.50;24.77;;;6.20;99.90;;;;;;5155523;27;20049;-43
2023/11/13 00:03:45;;;;;;;50.33;25.10;;;6.30;99.90;;;;;;5155109;27;20042;-44
2023/11/13 00:06:13;;;;;;;46.55;23.48;;;6.30;99.90;;;;;;5137362;27;20050;-44
2023/11/13 00:08:39;;;;;;;43.50;24.05;;;6.30;99.90;;;;;;5137047;27;20452;-46
2023/11/13 00:11:05;;;;;;;42.40;23.98;;;6.30;99.90;;;;;;5155178;27;20830;-45
2023/11/13 00:13:30;;;;;;;53.40;23.02;;;6.30;99.90;;;;;;5155530;27;20121;-46
2023/11/13 00:15:57;;;;;;;37.33;22.75;;;6.40;99.90;;;;;;5134729;27;20035;-44
2023/11/13 00:18:23;;;;;;;45.03;23.20;;;6.30;99.90;;;;;;5155061;27;20035;-47
2023/11/13 00:20:49;;;;;;;43.97;24.83;;;6.30;99.90;;;;;;5155017;27;20058;-43
2023/11/13 00:23:15;;;;;;;41.10;23.63;;;6.30;99.90;;;;;;5154861;27;20053;-43
2023/11/13 00:25:41;;;;;;;44.88;25.05;;;6.40;99.90;;;;;;5154840;27;20031;-45
2023/11/13 00:28:06;;;;;;;42.00;24.35;;;6.40;99.90;;;;;;5154750;27;20042;-44
2023/11/13 00:30:32;;;;;;;44.05;24.65;;;6.30;99.90;;;;;;5154885;27;20031;-47
2023/11/13 00:32:58;;;;;;;41.60;24.38;;;6.40;99.90;;;;;;5154744;27;20091;-44
2023/11/13 00:35:23;;;;;;;31.98;21.92;;;6.40;99.90;;;;;;5154793;27;20142;-46
2023/11/13 00:37:49;;;;;;;37.97;23.52;;;6.50;99.90;;;;;;5154534;27;20065;-44
2023/11/13 00:40:16;;;;;;;45.72;25.33;;;6.50;99.90;;;;;;5154458;27;20132;-45
2023/11/13 00:42:41;;;;;;;48.20;24.42;;;6.50;99.90;;;;;;5154123;27;20055;-45
2023/11/13 00:45:07;;;;;;;39.08;23.67;;;6.50;99.90;;;;;;5154355;27;20118;-47
2023/11/13 00:47:33;;;;;;;37.25;23.85;;;6.50;99.90;;;;;;5154295;27;20473;-46
2023/11/13 00:49:59;;;;;;;46.80;23.50;;;6.40;99.90;;;;;;5154266;27;20040;-47
2023/11/13 00:52:24;;;;;;;41.97;22.48;;;6.40;99.90;;;;;;5154234;27;20488;-45
2023/11/13 00:54:52;;;;;;;37.65;21.67;;;6.40;99.90;;;;;;5154360;27;20053;-45
2023/11/13 00:57:18;;;;;;;40.28;21.70;;;6.30;99.90;;;;;;5154190;27;20046;-46
2023/11/13 00:59:43;;;;;;;36.65;22.33;;;6.30;99.90;;;;;;5154469;27;20043;-43
2023/11/13 01:02:09;;;;;;;35.83;21.27;;;6.40;99.90;;;;;;5154079;27;20060;-44
2023/11/13 01:04:35;;;;;;;32.58;21.27;;;6.40;99.90;;;;;;5153996;27;20122;-43
2023/11/13 01:07:00;;;;;;;31.73;20.65;;;6.40;99.90;;;;;;5135463;27;20033;-45
2023/11/13 01:09:26;;;;;;;34.53;21.38;;;6.40;99.90;;;;;;5153807;27;20524;-47
2023/11/13 01:11:52;;;;;;;33.63;22.02;;;6.30;99.90;;;;;;5154305;27;20034;-46
2023/11/13 01:14:19;;;;;;;39.10;21.92;;;6.40;99.90;;;;;;5153733;27;20035;-48
2023/11/13 01:16:45;;;;;;;42.95;21.48;;;6.30;99.90;;;;;;5153999;27;20076;-47
2023/11/13 01:19:11;;;;;;;34.53;20.23;;;6.30;99.90;;;;;;5153826;27;20050;-46
2023/11/13 01:21:37;;;;;;;44.47;20.85;;;6.40;99.90;;;;;;5153844;27;20038;-42
2023/11/13 01:24:03;;;;;;;33.25;20.17;;;6.40;99.90;;;;;;5153681;27;20042;-45
2023/11/13 01:26:29;;;;;;;48.85;22.38;;;6.40;99.90;;;;;;5153683;27;20414;-43
2023/11/13 01:28:54;;;;;;;41.40;21.95;;;6.40;99.90;;;;;;5135179;27;20241;-44
2023/11/13 01:31:21;;;;;;;45.42;22.13;;;6.40;99.90;;;;;;5153771;27;20119;-43
2023/11/13 01:33:47;;;;;;;44.70;22.00;;;6.40;99.90;;;;;;5153822;27;20041;-44
2023/11/13 01:36:12;;;;;;;37.42;20.85;;;6.30;99.90;;;;;;5153500;27;20038;-44
2023/11/13 01:38:38;;;;;;;51.45;22.92;;;6.40;99.90;;;;;;5153868;27;20039;-43
2023/11/13 01:41:04;;;;;;;36.08;20.67;;;6.30;99.90;;;;;;5153990;27;20117;-44
2023/11/13 01:43:29;;;;;;;30.33;19.45;;;6.40;99.90;;;;;;5153530;27;20095;-43
2023/11/13 01:45:58;;;;;;;46.15;20.15;;;6.30;99.90;;;;;;5153862;27;20038;-43
2023/11/13 01:48:24;;;;;;;33.85;18.92;;;6.30;99.90;;;;;;5153675;27;20034;-43
2023/11/13 01:50:51;;;;;;;38.47;19.40;;;6.30;99.90;;;;;;5153757;27;20153;-44
2023/11/13 01:53:22;;;;;;;39.58;21.17;;;6.30;99.90;;;;;;5153661;27;20835;-44
2023/11/13 01:55:48;;;;;;;37.60;21.20;;;6.30;99.90;;;;;;5153242;27;20038;-43
2023/11/13 01:58:15;;;;;;;31.13;20.60;;;6.30;99.90;;;;;;5153602;27;20106;-44
2023/11/13 02:00:41;;;;;;;62.85;19.42;;;6.30;99.90;;;;;;5153390;27;20036;-46
2023/11/13 02:03:08;;;;;;;73.57;19.67;;;6.20;99.90;;;;;;5153226;27;20083;-44
2023/11/13 02:05:34;;;;;;;83.35;20.33;;;6.10;99.90;;;;;;5153151;27;20031;-45
2023/11/13 02:08:00;;;;;;;40.13;18.30;;;6.20;99.90;;;;;;5150144;27;20119;-45
2023/11/13 02:10:26;;;;;;;33.63;17.77;;;6.10;99.90;;;;;;5131627;27;20158;-46
2023/11/13 02:12:53;;;;;;;35.42;17.52;;;6.00;99.90;;;;;;5132546;27;20507;-49
2023/11/13 02:15:19;;;;;;;40.67;18.50;;;6.10;99.90;;;;;;5132634;28;20068;-44
2023/11/13 02:18:04;;;;;;;34.90;18.00;;;6.10;99.90;;;;;;5132572;27;20043;-45
2023/11/13 02:20:31;;;;;;;81.38;19.33;;;6.00;99.90;;;;;;5132284;28;20076;-45
2023/11/13 02:22:58;;;;;;;46.47;17.95;;;6.00;99.90;;;;;;5114504;28;20050;-45
2023/11/13 02:25:25;;;;;;;106.93;22.08;;;6.00;99.90;;;;;;5131752;28;20095;-46
2023/11/13 02:27:57;;;;;;;98.28;21.00;;;6.00;99.90;;;;;;5118921;28;20049;-48
2023/11/13 02:30:23;;;;;;;85.75;18.38;;;6.00;99.90;;;;;;5132837;28;20134;-50
2023/11/13 02:32:49;;;;;;;64.40;18.10;;;5.90;99.90;;;;;;5132449;28;20039;-44
2023/11/13 02:35:18;;;;;;;102.60;18.08;;;5.80;99.90;;;;;;5132255;28;20433;-46
2023/11/13 02:37:44;;;;;;;60.72;16.25;;;5.80;99.90;;;;;;5132813;28;20082;-44
2023/11/13 02:40:11;;;;;;;120.93;18.60;;;5.80;99.90;;;;;;5132638;27;20046;-49
2023/11/13 02:42:41;;;;;;;75.05;17.13;;;5.70;99.90;;;;;;5133749;27;20126;-45
2023/11/13 02:45:08;;;;;;;101.90;18.35;;;5.70;99.90;;;;;;5124083;27;20477;-45
2023/11/13 02:47:34;;;;;;;84.20;17.48;;;5.70;99.90;;;;;;5135875;27;20070;-43
2023/11/13 02:50:00;;;;;;;24.80;17.10;;;5.70;99.90;;;;;;5136267;27;20067;-45
2023/11/13 02:52:26;;;;;;;32.30;17.70;;;5.70;99.90;;;;;;5136369;27;20739;-41
2023/11/13 02:54:52;;;;;;;44.65;17.70;;;5.70;99.90;;;;;;5135843;27;20041;-43
2023/11/13 02:57:22;;;;;;;61.03;18.67;;;5.70;99.90;;;;;;5136182;27;20108;-49
2023/11/13 02:59:48;;;;;;;50.60;18.88;;;5.70;99.90;;;;;;5135852;27;20039;-44
2023/11/13 03:02:14;;;;;;;54.65;18.10;;;5.70;99.90;;;;;;5135948;27;20681;-46
2023/11/13 03:04:40;;;;;;;41.08;18.50;;;5.70;99.90;;;;;;5135931;27;20454;-44
2023/11/13 03:07:05;;;;;;;52.40;18.38;;;5.70;99.90;;;;;;5135686;27;20071;-43
2023/11/13 03:09:31;;;;;;;24.38;17.70;;;5.70;99.90;;;;;;5135862;27;20074;-47
2023/11/13 03:11:57;;;;;;;35.67;18.25;;;5.70;99.90;;;;;;5135667;27;20484;-45
2023/11/13 03:14:24;;;;;;;40.92;18.58;;;5.70;99.90;;;;;;5135544;27;20510;-43
2023/11/13 03:16:50;;;;;;;73.72;18.80;;;5.70;99.90;;;;;;5132211;27;20039;-45
2023/11/13 03:19:16;;;;;;;71.00;19.85;;;5.70;99.90;;;;;;5123758;27;20118;-43
2023/11/13 03:21:41;;;;;;;72.57;20.48;;;5.60;99.90;;;;;;5135352;27;20492;-44
2023/11/13 03:24:07;;;;;;;56.45;18.73;;;5.70;99.90;;;;;;5135246;27;20035;-44
2023/11/13 03:26:33;;;;;;;27.98;17.60;;;5.60;99.90;;;;;;5116844;27;20044;-45
2023/11/13 03:28:59;;;;;;;60.33;19.45;;;5.70;99.90;;;;;;5135088;27;20070;-43
2023/11/13 03:31:26;;;;;;;43.40;20.23;;;5.60;99.90;;;;;;5135055;27;20601;-46
2023/11/13 03:33:53;;;;;;;74.57;19.85;;;5.70;99.90;;;;;;5135188;27;20035;-44
2023/11/13 03:36:19;;;;;;;87.53;21.73;;;5.60;99.90;;;;;;5135124;27;20054;-42
2023/11/13 03:38:45;;;;;;;36.83;20.25;;;5.60;99.90;;;;;;5116526;27;20047;-43
2023/11/13 03:41:11;;;;;;;76.07;20.90;;;5.60;99.90;;;;;;5135100;27;20027;-43
2023/11/13 03:43:37;;;;;;;89.97;22.58;;;5.60;99.90;;;;;;5134712;27;20121;-42
2023/11/13 03:46:02;;;;;;;38.10;19.95;;;5.70;99.90;;;;;;5134761;27;20039;-43
2023/11/13 03:48:28;;;;;;;38.42;20.17;;;5.70;99.90;;;;;;5134878;27;20500;-42
2023/11/13 03:50:54;;;;;;;33.50;19.52;;;5.70;99.90;;;;;;5134816;27;20053;-43
2023/11/13 03:53:20;;;;;;;33.38;17.05;;;5.60;99.90;;;;;;5134491;27;20054;-45
2023/11/13 03:55:46;;;;;;;38.85;19.55;;;5.60;99.90;;;;;;5134692;27;20480;-43
2023/11/13 03:58:12;;;;;;;56.25;20.35;;;5.60;99.90;;;;;;5134571;27;20039;-45
2023/11/13 04:00:38;;;;;;;32.30;19.42;;;5.50;99.90;;;;;;5134527;27;20039;-43
2023/11/13 04:03:03;;;;;;;52.08;20.23;;;5.50;99.90;;;;;;5134490;27;20039;-45
2023/11/13 04:05:29;;;;;;;34.88;21.73;;;5.50;99.90;;;;;;5134517;27;20084;-48
2023/11/13 04:07:56;;;;;;;26.70;18.85;;;5.50;99.90;;;;;;5134338;27;20031;-44
2023/11/13 04:10:22;;;;;;;27.23;19.88;;;5.50;99.90;;;;;;5134429;27;20434;-48
2023/11/13 04:12:48;;;;;;;32.85;20.65;;;5.50;99.90;;;;;;5134131;27;20485;-43
2023/11/13 04:15:14;;;;;;;35.50;21.45;;;5.50;99.90;;;;;;5134265;27;20039;-46
2023/11/13 04:17:40;;;;;;;32.17;19.90;;;5.50;99.90;;;;;;5124569;27;20493;-47
2023/11/13 04:20:07;;;;;;;26.58;19.42;;;5.50;99.90;;;;;;5129124;27;20043;-44
2023/11/13 04:22:33;;;;;;;29.85;19.73;;;5.50;99.90;;;;;;5134094;27;20035;-47
2023/11/13 04:25:01;;;;;;;33.05;20.33;;;5.60;99.90;;;;;;5134057;27;20045;-47
2023/11/13 04:27:27;;;;;;;29.52;20.95;;;5.50;99.90;;;;;;5133818;27;20031;-45
2023/11/13 04:29:52;;;;;;;31.48;20.65;;;5.50;99.90;;;;;;5133859;27;20492;-45
2023/11/13 04:32:19;;;;;;;30.90;20.88;;;5.50;99.90;;;;;;5134016;27;20035;-47
2023/11/13 04:34:45;;;;;;;27.50;18.70;;;5.50;99.90;;;;;;5115483;27;20483;-46
2023/11/13 04:37:11;;;;;;;30.70;19.95;;;5.50;99.90;;;;;;5133814;27;20073;-45
2023/11/13 04:39:36;;;;;;;29.52;19.80;;;5.50;99.90;;;;;;5133769;27;20083;-44
2023/11/13 04:42:02;;;;;;;30.90;20.05;;;5.40;99.90;;;;;;5133285;27;20501;-43
2023/11/13 04:44:28;;;;;;;29.17;18.42;;;5.40;99.90;;;;;;5133533;27;20034;-44
2023/11/13 04:46:53;;;;;;;29.60;19.77;;;5.50;99.90;;;;;;5134126;27;20049;-44
2023/11/13 04:49:19;;;;;;;32.40;19.73;;;5.30;99.90;;;;;;5133929;27;20039;-44
2023/11/13 04:51:45;;;;;;;26.85;17.95;;;5.30;99.90;;;;;;5133709;27;20037;-44
2023/11/13 04:54:11;;;;;;;27.60;18.65;;;5.30;99.90;;;;;;5133270;27;20413;-44
2023/11/13 04:56:36;;;;;;;28.42;18.23;;;5.20;99.90;;;;;;5133466;27;20032;-46
2023/11/13 04:59:02;;;;;;;26.92;17.13;;;5.30;99.90;;;;;;5133691;27;20035;-43
2023/11/13 05:01:28;;;;;;;26.55;17.92;;;5.20;99.90;;;;;;5133349;27;20050;-45
2023/11/13 05:03:53;;;;;;;22.83;17.30;;;5.20;99.90;;;;;;5132499;27;20062;-43
2023/11/13 05:06:19;;;;;;;26.98;16.60;;;5.30;99.90;;;;;;5114827;27;20118;-45
2023/11/13 05:08:45;;;;;;;20.92;15.57;;;5.30;99.90;;;;;;5133416;27;20035;-44
2023/11/13 05:11:21;;;;;;;30.40;17.60;;;5.30;99.90;;;;;;5133018;27;20592;-44
2023/11/13 05:13:48;;;;;;;22.00;15.80;;;5.20;99.90;;;;;;5133148;27;20034;-44
2023/11/13 05:16:21;;;;;;;23.63;16.30;;;5.30;99.90;;;;;;5133374;27;20035;-43
2023/11/13 05:18:47;;;;;;;25.15;17.00;;;5.30;99.90;;;;;;5118550;27;20035;-44
2023/11/13 05:21:16;;;;;;;23.75;15.82;;;5.30;99.90;;;;;;5133437;27;20035;-45
2023/11/13 05:23:42;;;;;;;24.05;16.83;;;5.20;99.90;;;;;;5133007;27;20046;-43
2023/11/13 05:26:07;;;;;;;23.45;15.55;;;5.30;99.90;;;;;;5133018;27;20031;-44
2023/11/13 05:28:33;;;;;;;25.00;15.45;;;5.30;99.90;;;;;;5133036;27;20031;-45
2023/11/13 05:30:59;;;;;;;21.55;15.55;;;5.30;99.90;;;;;;5133591;27;20039;-47
2023/11/13 05:33:25;;;;;;;23.75;15.68;;;5.30;99.90;;;;;;5133082;27;20082;-44
2023/11/13 05:35:50;;;;;;;25.55;16.17;;;5.30;99.90;;;;;;5133213;27;20450;-42
2023/11/13 05:38:16;;;;;;;22.95;14.70;;;5.30;99.90;;;;;;5132845;27;20042;-42
2023/11/13 05:40:45;;;;;;;25.50;15.55;;;5.30;99.90;;;;;;5132537;27;20465;-41
2023/11/13 05:43:11;;;;;;;;;;;5.30;99.90;;;;;;5132820;27;20086;-44
2023/11/13 05:45:37;;;;;;;25.70;15.38;;;5.30;99.90;;;;;;5132656;27;19915;-44
2023/11/13 05:48:06;;;;;;;22.85;15.40;;;5.30;99.90;;;;;;5114015;27;20104;-46
2023/11/13 05:50:32;;;;;;;21.58;14.90;;;5.40;99.90;;;;;;5132450;27;20035;-45
2023/11/13 05:52:58;;;;;;;28.08;16.95;;;5.40;99.90;;;;;;5132599;27;20042;-45
2023/11/13 05:55:23;;;;;;;24.52;16.75;;;5.30;99.90;;;;;;5132791;27;20465;-44
2023/11/13 05:57:50;;;;;;;30.30;16.40;;;5.30;99.90;;;;;;5132597;28;20034;-48
2023/11/13 06:00:18;;;;;;;23.02;15.73;;;5.20;99.90;;;;;;5132596;28;20031;-44
2023/11/13 06:02:45;;;;;;;27.40;16.70;;;5.20;99.90;;;;;;5132342;28;20087;-47
2023/11/13 06:05:11;;;;;;;22.42;14.65;;;5.20;99.90;;;;;;5132404;28;20043;-44
2023/11/13 06:07:37;;;;;;;24.88;15.63;;;5.30;99.90;;;;;;5132539;28;20035;-43
2023/11/13 06:10:10;;;;;;;26.83;16.70;;;5.20;99.90;;;;;;5114318;28;20042;-49
2023/11/13 06:12:39;;;;;;;23.55;15.05;;;5.20;99.90;;;;;;5114307;28;20046;-45
2023/11/13 06:15:11;;;;;;;;;;;5.20;99.90;;;;;;5129975;27;20043;-44
2023/11/13 06:17:37;;;;;;;25.30;15.48;;;5.10;99.90;;;;;;5127464;27;19915;-44
2023/11/13 06:20:03;;;;;;;20.50;14.90;;;5.10;99.90;;;;;;5131581;27;20043;-45
2023/11/13 06:22:30;;;;;;;22.80;16.15;;;5.10;99.90;;;;;;5136736;27;20039;-43
2023/11/13 06:24:56;;;;;;;27.50;16.00;;;5.10;99.90;;;;;;5136282;27;20050;-44
2023/11/13 06:27:22;;;;;;;23.70;14.73;;;5.10;99.90;;;;;;5136231;27;20035;-44
2023/11/13 06:29:48;;;;;;;22.13;15.73;;;5.10;99.90;;;;;;5136554;27;20370;-43
2023/11/13 06:32:14;;;;;;;25.27;16.08;;;5.10;99.90;;;;;;5136435;27;20115;-42
2023/11/13 06:34:39;;;;;;;24.25;15.10;;;5.00;99.90;;;;;;5118007;27;20027;-41
2023/11/13 06:37:05;;;;;;;24.38;16.73;;;5.10;99.90;;;;;;5135978;27;20042;-43
2023/11/13 06:39:32;;;;;;;23.25;15.38;;;5.00;99.90;;;;;;5136155;27;20035;-45
2023/11/13 06:41:58;;;;;;;24.67;16.02;;;5.00;99.90;;;;;;5136051;27;20124;-45
2023/11/13 06:44:23;;;;;;;23.52;14.50;;;5.00;99.90;;;;;;5135839;27;20027;-45
2023/11/13 06:46:49;;;;;;;28.23;15.48;;;5.00;99.90;;;;;;5136060;27;20473;-44
2023/11/13 06:49:18;;;;;;;21.80;15.68;;;5.00;99.90;;;;;;5135661;27;20088;-46
2023/11/13 06:51:44;;;;;;;24.20;15.90;;;5.00;99.90;;;;;;5136020;27;20042;-43
2023/11/13 06:54:10;;;;;;;20.08;15.93;;;5.00;99.90;;;;;;5135865;27;20039;-48
2023/11/13 06:56:37;;;;;;;22.10;15.55;;;4.90;99.90;;;;;;5135942;27;20031;-44
2023/11/13 06:59:03;;;;;;;24.45;16.52;;;4.90;99.90;;;;;;5135812;27;20039;-43
2023/11/13 07:01:37;;;;;;;23.02;16.63;;;4.90;99.90;;;;;;5135720;27;20088;-47
2023/11/13 07:04:04;;;;;;;23.98;16.80;;;4.90;99.90;;;;;;5135619;27;20037;-45
2023/11/13 07:06:31;;;;;;;24.17;16.27;;;4.80;99.90;;;;;;5135630;27;20031;-43
2023/11/13 07:08:58;;;;;;;22.67;17.13;;;4.80;99.90;;;;;;5135836;27;20031;-47
2023/11/13 07:11:24;;;;;;;24.60;16.80;;;4.90;99.90;;;;;;5135460;27;20119;-44
2023/11/13 07:13:50;;;;;;;23.40;16.05;;;4.90;99.90;;;;;;5135557;27;20154;-46
2023/11/13 07:16:16;;;;;;;25.10;16.73;;;4.80;99.90;;;;;;5135170;27;20456;-43
2023/11/13 07:18:41;;;;;;;26.55;16.30;;;4.80;99.90;;;;;;5102678;27;20067;-45
2023/11/13 07:21:07;;;;;;;21.73;15.18;;;4.80;99.90;;;;;;5135586;27;20070;-43
2023/11/13 07:23:33;;;;;;;26.98;16.38;;;4.90;99.90;;;;;;5116696;27;20091;-43
2023/11/13 07:25:58;;;;;;;24.10;15.88;;;4.80;99.90;;;;;;5135294;27;20069;-43
2023/11/13 07:28:24;;;;;;;23.33;15.63;;;4.90;99.90;;;;;;5134633;27;20384;-42
2023/11/13 07:30:51;;;;;;;25.63;16.55;;;4.90;99.90;;;;;;5134886;27;20031;-43
2023/11/13 07:33:17;;;;;;;23.48;15.77;;;5.00;99.90;;;;;;5135334;27;20043;-42
2023/11/13 07:35:43;;;;;;;24.15;17.13;;;5.00;99.90;;;;;;5135201;27;20034;-44
2023/11/13 07:38:09;;;;;;;25.90;15.23;;;5.00;99.90;;;;;;5116703;27;20393;-45
2023/11/13 07:40:36;;;;;;;26.50;17.00;;;5.10;99.90;;;;;;5134969;27;20172;-43
2023/11/13 07:43:02;;;;;;;23.98;15.07;;;5.00;99.90;;;;;;5134684;27;20544;-45
2023/11/13 07:45:28;;;;;;;23.77;15.25;;;5.00;99.90;;;;;;5134609;27;20071;-44
2023/11/13 07:47:56;;;;;;;17.95;14.27;;;5.10;99.90;;;;;;5135149;27;20082;-48
2023/11/13 07:50:23;;;;;;;27.13;15.63;;;5.10;99.90;;;;;;5135075;27;20035;-44
2023/11/13 07:52:50;;;;;;;24.50;16.23;;;5.20;99.90;;;;;;5116414;27;20039;-43
2023/11/13 07:55:18;;;;;;;23.05;14.98;;;5.10;99.90;;;;;;5134888;27;20389;-43
2023/11/13 07:57:44;;;;;;;21.75;14.93;;;5.10;99.90;;;;;;5134422;27;20038;-43
2023/11/13 08:00:10;;;;;;;24.52;15.55;;;5.10;99.90;;;;;;5134553;27;20039;-42
2023/11/13 08:02:42;;;;;;;24.13;16.45;;;5.20;99.90;;;;;;5134183;27;20524;-44
2023/11/13 08:05:11;;;;;;;25.67;15.50;;;5.20;99.90;;;;;;5134706;27;20460;-42
2023/11/13 08:07:42;;;;;;;23.95;15.63;;;5.20;99.90;;;;;;5095954;27;20036;-45
2023/11/13 08:10:13;;;;;;;23.80;15.05;;;5.20;99.90;;;;;;5134433;27;20038;-42
2023/11/13 08:12:46;;;;;;;23.65;15.52;;;5.20;99.90;;;;;;5134703;27;20050;-41
2023/11/13 08:15:13;;;;;;;25.13;15.82;;;5.30;99.90;;;;;;5102908;27;20050;-41
2023/11/13 08:17:52;;;;;;;22.85;15.45;;;5.30;99.90;;;;;;5124782;27;20074;-43
2023/11/13 08:20:18;;;;;;;22.17;15.13;;;5.40;99.90;;;;;;5131211;27;20103;-44
2023/11/13 08:22:47;;;;;;;18.65;13.98;;;5.30;99.90;;;;;;5134525;27;20078;-41
2023/11/13 08:25:14;;;;;;;;;;;5.30;99.90;;;;;;5134562;27;20035;-41
2023/11/13 08:27:44;;;;;;;21.27;13.65;;;5.40;99.90;;;;;;5134143;27;19915;-41
2023/11/13 08:30:15;;;;;;;22.33;14.55;;;5.40;99.90;;;;;;5134213;27;20077;-44
2023/11/13 08:32:41;;;;;;;20.13;13.13;;;5.40;99.90;;;;;;5115503;27;20046;-48
2023/11/13 08:35:12;;;;;;;19.27;13.57;;;5.50;99.90;;;;;;5134029;27;20042;-44
2023/11/13 08:37:47;;;;;;;20.75;14.68;;;5.40;99.90;;;;;;5133613;27;20027;-42
2023/11/13 08:40:23;;;;;;;23.63;14.75;;;5.40;99.90;;;;;;5134053;27;20031;-42
2023/11/13 08:42:49;;;;;;;24.50;13.93;;;5.50;99.90;;;;;;5133628;27;20126;-43
2023/11/13 08:45:15;;;;;;;18.35;13.73;;;5.50;99.90;;;;;;5133901;27;20126;-44
2023/11/13 08:47:47;;;;;;;19.50;13.52;;;5.60;99.90;;;;;;5133870;27;20039;-46
2023/11/13 08:50:14;;;;;;;22.50;13.70;;;5.60;99.90;;;;;;5115395;27;20035;-43
2023/11/13 08:52:42;;;;;;;21.00;14.13;;;5.60;99.90;;;;;;5115103;27;20035;-44
2023/11/13 08:55:12;;;;;;;20.67;13.77;;;5.70;99.90;;;;;;5133477;27;20488;-44
2023/11/13 08:57:41;;;;;;;18.83;12.85;;;5.70;99.90;;;;;;5133306;27;20039;-46
2023/11/13 09:00:08;;;;;;;20.90;13.00;;;5.70;99.90;;;;;;5133565;27;20062;-46
2023/11/13 09:02:35;;;;;;;24.08;12.88;;;5.70;99.90;;;;;;5133187;27;20031;-43
2023/11/13 09:05:04;;;;;;;17.85;12.55;;;5.70;99.90;;;;;;5115213;27;20043;-46
2023/11/13 09:07:31;;;;;;;17.17;12.20;;;5.70;99.90;;;;;;5115302;27;20468;-43
2023/11/13 09:10:00;;;;;;;16.30;12.32;;;5.70;99.90;;;;;;5133218;27;20023;-43
2023/11/13 09:12:27;;;;;;;;;;;5.70;99.90;;;;;;5133552;27;20152;-43
2023/11/13 09:14:53;;;;;;;18.85;12.20;;;5.70;99.90;;;;;;5132983;27;20280;-42
2023/11/13 09:17:19;;;;;;;18.98;12.77;;;5.80;99.90;;;;;;5126782;27;20111;-42
2023/11/13 09:19:45;;;;;;;17.98;11.80;;;5.80;99.90;;;;;;5125268;27;20447;-42
2023/11/13 09:22:12;;;;;;;17.45;12.05;;;5.80;99.90;;;;;;5114720;27;20039;-42
2023/11/13 09:24:41;;;;;;;18.70;12.82;;;5.80;99.90;;;;;;5114481;27;20050;-46
2023/11/13 09:27:11;;;;;;;18.15;12.60;;;5.80;99.90;;;;;;5133011;27;20107;-45
2023/11/13 09:29:44;;;;;;;17.77;12.93;;;5.90;99.90;;;;;;5132899;27;20533;-43
2023/11/13 09:32:14;;;;;;;22.80;13.20;;;6.00;99.90;;;;;;5132735;27;20544;-43
2023/11/13 09:34:42;;;;;;;24.17;13.45;;;6.00;99.90;;;;;;5133117;27;20423;-44
2023/11/13 09:37:08;;;;;;;22.55;13.43;;;6.00;99.90;;;;;;5132783;27;20107;-45
2023/11/13 09:39:39;;;;;;;26.73;13.82;;;6.00;99.90;;;;;;5132859;27;20042;-43
2023/11/13 09:42:13;;;;;;;18.88;13.45;;;6.00;99.90;;;;;;5132359;27;20400;-46
2023/11/13 09:44:41;;;;;;;19.98;14.23;;;6.00;99.90;;;;;;5132823;27;20035;-44
2023/11/13 09:47:09;;;;;;;26.55;15.07;;;6.10;99.90;;;;;;5132703;27;20401;-43
2023/11/13 09:49:43;;;;;;;23.70;14.18;;;6.10;99.90;;;;;;5132491;27;20046;-43
2023/11/13 09:52:12;;;;;;;20.88;15.18;;;6.00;99.90;;;;;;5132695;27;20038;-44
2023/11/13 09:54:38;;;;;;;27.90;15.02;;;6.10;99.90;;;;;;5132222;27;20493;-42
2023/11/13 09:57:09;;;;;;;25.08;14.63;;;6.10;99.90;;;;;;5132505;27;20043;-44
2023/11/13 09:59:36;;;;;;;24.58;14.20;;;6.10;99.90;;;;;;5132535;28;20393;-47
2023/11/13 10:02:07;;;;;;;23.65;14.00;;;6.10;99.90;;;;;;5132529;28;20477;-44
2023/11/13 10:04:34;;;;;;;24.10;14.52;;;6.10;99.90;;;;;;5132308;28;20039;-44
2023/11/13 10:07:02;;;;;;;22.20;14.48;;;6.10;99.90;;;;;;5132500;28;20035;-43
2023/11/13 10:09:30;;;;;;;29.33;15.05;;;6.10;99.90;;;;;;5132367;28;20144;-43
2023/11/13 10:11:58;;;;;;;30.55;16.42;;;6.10;99.90;;;;;;5132569;28;20081;-43
2023/11/13 10:14:25;;;;;;;25.35;14.80;;;6.20;99.90;;;;;;5114092;28;20438;-43
2023/11/13 10:16:56;;;;;;;28.55;16.52;;;6.20;99.90;;;;;;5129848;28;20106;-42
2023/11/13 10:19:23;;;;;;;25.88;16.35;;;6.20;99.90;;;;;;5121456;28;20035;-42
2023/11/13 10:21:49;;;;;;;32.35;17.23;;;6.20;99.90;;;;;;5132574;28;20100;-43
2023/11/13 10:24:21;;;;;;;28.30;15.98;;;6.20;99.90;;;;;;5132440;28;20079;-43
2023/11/13 10:26:57;;;;;;;26.33;15.90;;;6.30;99.90;;;;;;5132198;28;20115;-43
2023/11/13 10:29:30;;;;;;;32.00;17.85;;;6.30;99.90;;;;;;5113973;28;20035;-45
2023/11/13 10:32:02;;;;;;;35.22;17.33;;;6.40;99.90;;;;;;5132067;28;20043;-43
2023/11/13 10:34:43;;;;;;;31.85;17.67;;;6.40;99.90;;;;;;5132181;28;20118;-43
2023/11/13 10:37:11;;;;;;;30.73;16.33;;;6.40;99.90;;;;;;5132215;28;20043;-44
2023/11/13 10:39:42;;;;;;;30.45;16.58;;;6.50;99.90;;;;;;5132318;28;20426;-42
2023/11/13 10:42:25;;;;;;;36.35;17.65;;;6.50;99.90;;;;;;5132390;27;20062;-44
2023/11/13 10:44:56;;;;;;;30.75;16.58;;;6.60;99.90;;;;;;5113730;28;20053;-44
2023/11/13 10:47:30;;;;;;;38.08;17.70;;;6.60;99.90;;;;;;5132255;28;20046;-44
2023/11/13 10:49:58;;;;;;;29.60;15.68;;;6.60;99.90;;;;;;5132095;28;20076;-44
2023/11/13 10:52:27;;;;;;;33.97;16.77;;;6.60;99.90;;;;;;5132219;28;20035;-43
2023/11/13 10:54:55;;;;;;;32.75;17.75;;;6.60;99.90;;;;;;5132142;28;20034;-45
2023/11/13 10:57:22;;;;;;;26.88;16.88;;;6.70;99.90;;;;;;5132034;28;20047;-43
2023/11/13 10:59:52;;;;;;;31.65;16.67;;;6.70;99.90;;;;;;5113993;28;20035;-43
2023/11/13 11:02:35;;;;;;;34.65;17.08;;;6.70;99.90;;;;;;5133426;27;20081;-42
2023/11/13 11:05:11;;;;;;;34.67;17.48;;;6.70;99.90;;;;;;5122437;27;20077;-43
2023/11/13 11:07:38;;;;;;;35.80;17.63;;;6.80;99.90;;;;;;5135757;27;20113;-45
2023/11/13 11:10:05;;;;;;;39.47;17.40;;;6.80;99.90;;;;;;5135776;27;20082;-42
2023/11/13 11:12:43;;;;;;;31.23;16.25;;;6.90;99.90;;;;;;5135489;27;20043;-42
2023/11/13 11:15:09;;;;;;;37.42;16.67;;;6.90;99.90;;;;;;5123171;27;20054;-43
2023/11/13 11:17:39;;;;;;;36.35;17.63;;;6.90;99.90;;;;;;5126845;27;20673;-44
2023/11/13 11:20:11;;;;;;;27.70;15.50;;;7.00;99.90;;;;;;5135263;27;20035;-43
2023/11/13 11:22:45;;;;;;;27.67;15.10;;;7.00;99.90;;;;;;5135465;27;20084;-46
2023/11/13 11:25:47;;;;;;;22.95;14.27;;;7.10;99.90;;;;;;5135565;27;20478;-44
2023/11/13 11:28:44;;;;;;;24.27;14.95;;;7.20;99.90;;;;;;5071967;28;20047;-55
2023/11/13 11:31:38;;;;;;;24.50;13.98;;;7.20;99.90;;;;;;5123063;27;20027;-55
2023/11/13 11:34:07;;;;;;;27.98;14.02;;;7.40;99.90;;;;;;5135066;27;20071;-55
2023/11/13 11:36:43;;;;;;;30.05;14.73;;;7.30;99.90;;;;;;5116659;27;20047;-53
2023/11/13 11:39:18;;;;;;;28.38;13.63;;;7.50;99.90;;;;;;5135055;27;20114;-55
2023/11/13 11:41:46;;;;;;;26.98;13.15;;;7.60;99.90;;;;;;5134789;27;20058;-54
2023/11/13 11:44:37;;;;;;;24.77;13.75;;;7.60;99.90;;;;;;5134604;27;20043;-54
2023/11/13 11:47:03;;;;;;;23.48;13.90;;;7.60;99.90;;;;;;5110042;27;20043;-53
2023/11/13 11:49:30;;;;;;;25.90;14.35;;;7.60;99.90;;;;;;5134576;27;20469;-54
2023/11/13 11:52:00;;;;;;;28.73;14.07;;;7.70;99.90;;;;;;5134817;27;20092;-54
2023/11/13 11:54:25;;;;;;;23.35;13.73;;;7.80;99.90;;;;;;5134584;27;20393;-55
2023/11/13 11:57:00;;;;;;;24.42;12.30;;;7.90;99.90;;;;;;5134696;27;20035;-54
2023/11/13 11:59:27;;;;;;;21.67;12.05;;;7.90;99.90;;;;;;5134448;27;20035;-53
2023/11/13 12:01:57;;;;;;;25.50;12.50;;;8.00;99.90;;;;;;5134431;27;20039;-54
2023/11/13 12:04:23;;;;;;;19.15;12.10;;;7.90;99.90;;;;;;5134699;27;20046;-52
2023/11/13 12:06:50;;;;;;;17.95;11.57;;;8.00;99.90;;;;;;5134459;27;20031;-55
2023/11/13 12:09:20;;;;;;;16.88;11.15;;;8.00;99.90;;;;;;5137253;27;20053;-53
2023/11/13 12:11:48;;;;;;;16.48;12.18;;;8.00;99.90;;;;;;5154877;27;20035;-52
2023/11/13 12:14:15;;;;;;;19.92;12.50;;;8.00;99.90;;;;;;5154352;27;20045;-54
2023/11/13 12:16:42;;;;;;;19.73;12.18;;;8.10;99.90;;;;;;5152488;27;20532;-54
2023/11/13 12:19:09;;;;;;;20.15;11.95;;;8.20;99.90;;;;;;5121235;27;20074;-53
2023/11/13 12:21:36;;;;;;;17.77;10.60;;;8.10;99.90;;;;;;5147856;27;20150;-54
2023/11/13 12:24:02;;;;;;;21.45;12.50;;;8.20;99.90;;;;;;5154610;27;20488;-51
2023/11/13 12:26:28;;;;;;;16.55;10.98;;;8.20;99.90;;;;;;5154792;27;20075;-52
2023/11/13 12:28:54;;;;;;;17.15;10.98;;;8.30;99.90;;;;;;5154656;27;20035;-53
2023/11/13 12:31:20;;;;;;;18.70;11.77;;;8.30;99.90;;;;;;5155006;27;20085;-54
2023/11/13 12:33:47;;;;;;;18.27;10.75;;;8.40;99.90;;;;;;5154552;27;20483;-53
2023/11/13 12:36:15;;;;;;;15.52;10.43;;;8.50;99.90;;;;;;5136665;27;20161;-53
2023/11/13 12:38:44;;;;;;;16.20;10.48;;;8.50;99.90;;;;;;5154744;27;20051;-51
2023/11/13 12:41:12;;;;;;;16.48;9.65;;;8.50;99.90;;;;;;5126516;27;20512;-54